Terminal Aerodrome Forecast
Issued by NWS

Home | Current Version | Previous Version | Text Only | Print | Product List | Glossary On
Versions: 1 2 3 4 5 6 7 8 9 10 11 12 13 14 15
727
FTUS43 KAPX 240520
TAFAPN
TAF
KAPN 240520Z 2406/2506 20005KT P6SM SCT100
     FM241100 20008KT P6SM BKN080 WS018/23035KT
     FM241300 20011KT P6SM BKN100 WS013/23045KT
     FM241600 21012G21KT P6SM BKN090 WS010/22045KT
     FM250200 23010G21KT P6SM -SHRA BKN045 WS020/24040KT
     FM250500 26009KT P6SM -SHRA OVC030=

USA.gov is the U.S. government's official web portal to all federal, state and local government web resources and services.